CheckWX is a tool to help pilots better visualize weather data.  It is not intended as a substitute for an official pre-flight weather briefing.

09:36:42 UTC

WSSS METAR
Singapore Changi International Airport
Singapore, Singapore
Current

37 mins ago

WSSS 230900Z 11007KT 6000 FEW022 SCT280 30/24 Q1009 NOSIG
Observed
Sep-23 @ 09:00 UTC
Wind
  • 110° at 7 KTS
Visibility
6,000 meters
Flight Rules
MVFR
Cloud Levels
  • Few at 2,200' AGL
  • Scattered at 28,000' AGL
Temperature
30°C / 86°F
Dewpoint
24°C / 75°F
Heat Index
35°C / 95°F
Humidity
70%
Altimeter
29.79" Hg
Pressure
1008.92 hPa
Previous

1 hour ago

WSSS 230830Z 11008KT 090V150 7000 FEW022 SCT280 30/23 Q1009 NOSIG
Observed
Sep-23 @ 08:30 UTC
Wind
  • 110° at 8 KTS
Visibility
7,000 meters
Flight Rules
MVFR
Cloud Levels
  • Few at 2,200' AGL
  • Scattered at 28,000' AGL
Temperature
30°C / 86°F
Dewpoint
23°C / 73°F
Heat Index
34°C / 93°F
Humidity
66%
Altimeter
29.79" Hg
Pressure
1008.92 hPa
Previous

2 hours ago

WSSS 230800Z 11006KT 090V150 7000 FEW020 BKN280 28/24 Q1010 NOSIG
Observed
Sep-23 @ 08:00 UTC
Wind
  • 110° at 6 KTS
Visibility
7,000 meters
Flight Rules
MVFR
Cloud Levels
  • Few at 2,000' AGL
  • Broken at 28,000' AGL
Temperature
28°C / 82°F
Dewpoint
24°C / 75°F
Heat Index
32°C / 89°F
Humidity
79%
Altimeter
29.82" Hg
Pressure
1009.92 hPa